Time;durP1;ratioP1;P1;durP2;ratioP2;P2;SDS_P1;SDS_P2;PMS_P1;PMS_P2;Temp;Humidity;BMP_temperature;BMP_pressure;BME280_temperature;BME280_humidity;BME280_pressure;Samples;Min_cycle;Max_cycle;Signal;HPM_P1;HPM_P2
2022/06/10 00:02:08;;;;;;;12.13;2.50;;;10.20;99.90;;;;;;5048301;28;20291;-55
2022/06/10 00:04:35;;;;;;;3.25;2.40;;;10.20;99.90;;;;;;5051783;28;20039;-54
2022/06/10 00:07:02;;;;;;;;;;;10.20;99.90;;;;;;5054655;28;20544;-54
2022/06/10 00:09:29;;;;;;;4.13;2.10;;;10.20;99.90;;;;;;5049995;28;19924;-55
2022/06/10 00:11:56;;;;;;;9.07;2.90;;;10.20;99.90;;;;;;5035510;28;20070;-55
2022/06/10 00:14:23;;;;;;;3.10;1.90;;;10.20;99.90;;;;;;5051975;28;20035;-55
2022/06/10 00:16:50;;;;;;;8.80;2.75;;;10.20;99.90;;;;;;5047596;28;20047;-55
2022/06/10 00:19:17;;;;;;;10.75;2.63;;;10.20;99.90;;;;;;5026020;28;20036;-56
2022/06/10 00:21:44;;;;;;;7.70;2.75;;;10.20;99.90;;;;;;5032294;28;20106;-55
2022/06/10 00:24:11;;;;;;;;;;;10.20;99.90;;;;;;5032944;28;20040;-54
2022/06/10 00:26:38;;;;;;;5.65;2.25;;;10.20;99.90;;;;;;5036343;28;20687;-54
2022/06/10 00:29:05;;;;;;;4.78;2.20;;;10.20;99.90;;;;;;5016853;28;20040;-54
2022/06/10 00:31:31;;;;;;;12.93;2.80;;;10.20;99.90;;;;;;5006751;28;20076;-54
2022/06/10 00:33:59;;;;;;;7.18;2.53;;;10.20;99.90;;;;;;5021955;28;20117;-55
2022/06/10 00:36:25;;;;;;;6.60;2.25;;;10.20;99.90;;;;;;5044762;28;20747;-55
2022/06/10 00:38:52;;;;;;;;;;;10.20;99.90;;;;;;5052680;28;20051;-54
2022/06/10 00:41:20;;;;;;;6.05;2.30;;;10.20;99.90;;;;;;5049250;28;20397;-54
2022/06/10 00:43:47;;;;;;;4.50;2.38;;;10.20;99.90;;;;;;5052614;28;20052;-55
2022/06/10 00:46:23;;;;;;;3.95;2.15;;;10.20;99.90;;;;;;5052346;28;20119;-54
2022/06/10 00:49:11;;;;;;;4.70;2.00;;;10.20;99.90;;;;;;5052229;28;20062;-55
2022/06/10 00:52:08;;;;;;;8.63;1.88;;;10.20;99.90;;;;;;5052619;28;20527;-55
2022/06/10 00:54:41;;;;;;;6.93;2.75;;;10.20;99.90;;;;;;5040175;28;20840;-54
2022/06/10 00:57:19;;;;;;;7.90;2.00;;;10.20;99.90;;;;;;5035049;28;20783;-54
2022/06/10 01:00:04;;;;;;;5.53;2.10;;;10.20;99.90;;;;;;5023131;28;20036;-55
2022/06/10 01:02:34;;;;;;;6.75;2.63;;;10.20;99.90;;;;;;5032419;28;20032;-55
2022/06/10 01:05:13;;;;;;;7.20;2.25;;;10.30;99.90;;;;;;5029793;28;20594;-55
2022/06/10 01:07:48;;;;;;;4.75;2.45;;;10.20;99.90;;;;;;5052763;28;20885;-55
2022/06/10 01:10:17;;;;;;;9.07;2.25;;;10.20;99.90;;;;;;5050182;28;20586;-55
2022/06/10 01:12:56;;;;;;;6.55;2.53;;;10.20;99.90;;;;;;5051975;28;20039;-54
2022/06/10 01:15:56;;;;;;;4.28;2.30;;;10.10;99.90;;;;;;5050023;28;20571;-54
2022/06/10 01:18:42;;;;;;;4.55;2.42;;;10.10;99.90;;;;;;5032367;28;20590;-54
2022/06/10 01:21:59;;;;;;;5.07;2.50;;;10.10;99.90;;;;;;5029016;28;20059;-53
2022/06/10 01:24:51;;;;;;;4.85;2.55;;;10.00;99.90;;;;;;5012118;28;20052;-53
2022/06/10 01:27:48;;;;;;;8.10;2.45;;;10.00;99.90;;;;;;5038983;28;20218;-53
2022/06/10 01:30:36;;;;;;;4.93;2.63;;;10.00;99.90;;;;;;5019688;28;20138;-54
2022/06/10 01:33:25;;;;;;;2.88;2.30;;;10.00;99.90;;;;;;4991316;28;20505;-53
2022/06/10 01:36:00;;;;;;;5.60;2.47;;;10.00;99.90;;;;;;5027353;28;20044;-53
2022/06/10 01:38:43;;;;;;;9.23;2.60;;;10.00;99.90;;;;;;5030960;28;20058;-53
2022/06/10 01:41:22;;;;;;;9.85;2.30;;;10.00;99.90;;;;;;5032680;28;20066;-53
2022/06/10 01:43:49;;;;;;;9.73;2.85;;;10.00;99.90;;;;;;5030470;28;20533;-54
2022/06/10 01:46:28;;;;;;;13.20;2.78;;;10.00;99.90;;;;;;5032954;28;20063;-54
2022/06/10 01:49:06;;;;;;;5.10;2.20;;;9.90;99.90;;;;;;5008147;28;20289;-54
2022/06/10 01:52:10;;;;;;;7.40;2.17;;;9.90;99.90;;;;;;5022348;28;20552;-53
2022/06/10 01:54:54;;;;;;;6.13;2.75;;;9.80;99.90;;;;;;5027221;28;20521;-54
2022/06/10 01:57:34;;;;;;;4.70;2.50;;;9.80;99.90;;;;;;5029054;28;20324;-54
2022/06/10 02:00:11;;;;;;;5.75;3.00;;;9.70;99.90;;;;;;5030196;28;20043;-53
2022/06/10 02:02:45;;;;;;;7.55;2.40;;;9.80;99.90;;;;;;5031621;28;20036;-53
2022/06/10 02:05:19;;;;;;;15.43;2.80;;;9.70;99.90;;;;;;5031106;28;20098;-54
2022/06/10 02:07:55;;;;;;;6.43;2.90;;;9.80;99.90;;;;;;5036652;28;20055;-54
2022/06/10 02:10:39;;;;;;;4.47;2.20;;;9.80;99.90;;;;;;5032864;28;20044;-54
2022/06/10 02:13:15;;;;;;;8.50;2.78;;;9.80;99.90;;;;;;5035982;28;20302;-54
2022/06/10 02:15:47;;;;;;;5.22;2.85;;;9.80;99.90;;;;;;5034186;28;20151;-54
2022/06/10 02:18:21;;;;;;;7.78;2.60;;;9.80;99.90;;;;;;5045009;28;20493;-55
2022/06/10 02:20:53;;;;;;;3.03;2.65;;;9.80;99.90;;;;;;5029678;28;20368;-54
2022/06/10 02:23:26;;;;;;;18.88;4.20;;;9.80;99.90;;;;;;5031862;28;20043;-53
2022/06/10 02:25:58;;;;;;;7.38;3.17;;;9.80;99.90;;;;;;5037895;28;20035;-55
2022/06/10 02:28:35;;;;;;;4.05;2.38;;;9.80;99.90;;;;;;5021507;28;20045;-54
2022/06/10 02:31:32;;;;;;;5.97;2.63;;;9.80;99.90;;;;;;5013078;28;20040;-54
2022/06/10 02:34:04;;;;;;;6.30;3.37;;;9.70;99.90;;;;;;5025744;28;20093;-54
2022/06/10 02:36:48;;;;;;;10.98;3.10;;;9.70;99.90;;;;;;5052314;28;20863;-55
2022/06/10 02:39:33;;;;;;;8.70;2.53;;;9.60;99.90;;;;;;5053842;28;20063;-54
2022/06/10 02:42:24;;;;;;;8.20;3.10;;;9.60;99.90;;;;;;5056360;28;20128;-54
2022/06/10 02:45:06;;;;;;;10.30;2.92;;;9.60;99.90;;;;;;5054555;28;20147;-55
2022/06/10 02:47:59;;;;;;;6.55;2.58;;;9.50;99.90;;;;;;5056128;28;20204;-54
2022/06/10 02:50:26;;;;;;;5.95;3.20;;;9.50;99.90;;;;;;5050936;28;20728;-54
2022/06/10 02:52:54;;;;;;;8.18;3.42;;;9.50;99.90;;;;;;5052757;28;20847;-55
2022/06/10 02:55:24;;;;;;;6.28;2.70;;;9.40;99.90;;;;;;5033369;28;20031;-55
2022/06/10 03:03:55;;;;;;;8.93;3.05;;;9.40;99.90;;;;;;5027863;28;20056;-54
2022/06/10 03:06:52;;;;;;;6.40;2.75;;;9.40;99.90;;;;;;5052910;28;20120;-54
2022/06/10 03:09:22;;;;;;;5.65;3.17;;;9.30;99.90;;;;;;5052624;28;20412;-54
2022/06/10 03:11:55;;;;;;;9.60;3.40;;;9.30;99.90;;;;;;5053501;28;20197;-54
2022/06/10 03:14:43;;;;;;;10.68;3.05;;;9.30;99.90;;;;;;5052730;28;20211;-54
2022/06/10 03:17:52;;;;;;;7.22;3.40;;;9.30;99.90;;;;;;5042972;28;20063;-55
2022/06/10 03:20:19;;;;;;;6.20;3.47;;;9.30;99.90;;;;;;5010871;28;20359;-54
2022/06/10 03:23:14;;;;;;;6.63;3.50;;;9.30;99.90;;;;;;5035164;28;20555;-54
2022/06/10 03:25:48;;;;;;;7.78;3.40;;;9.30;99.90;;;;;;5037472;28;20072;-54
2022/06/10 03:28:23;;;;;;;5.00;2.92;;;9.20;99.90;;;;;;5034536;28;20752;-55
2022/06/10 03:30:50;;;;;;;4.00;3.13;;;9.20;99.90;;;;;;5029811;28;20101;-55
2022/06/10 03:33:28;;;;;;;;;;;9.20;99.90;;;;;;5016550;28;20203;-53
2022/06/10 03:36:14;;;;;;;9.63;4.05;;;9.20;99.90;;;;;;5049685;28;20151;-55
2022/06/10 03:38:44;;;;;;;12.65;3.70;;;9.10;99.90;;;;;;5049826;28;20299;-54
2022/06/10 03:41:27;;;;;;;8.15;3.35;;;9.10;99.90;;;;;;5049385;28;20043;-54
2022/06/10 03:43:56;;;;;;;6.47;3.05;;;9.10;99.90;;;;;;5029049;28;20070;-55
2022/06/10 03:46:26;;;;;;;6.93;3.75;;;9.10;99.90;;;;;;5052482;28;20282;-55
2022/06/10 03:48:56;;;;;;;12.93;4.78;;;9.10;99.90;;;;;;5032022;28;20043;-55
2022/06/10 03:51:23;;;;;;;11.63;4.13;;;9.00;99.90;;;;;;5052948;28;20039;-54
2022/06/10 03:53:50;;;;;;;4.43;3.00;;;9.10;99.90;;;;;;5054352;28;20036;-54
2022/06/10 03:56:22;;;;;;;5.53;3.55;;;9.10;99.90;;;;;;5033101;28;20336;-54
2022/06/10 03:58:50;;;;;;;4.25;3.38;;;9.10;99.90;;;;;;5037923;28;20774;-54
2022/06/10 04:01:17;;;;;;;5.65;3.90;;;9.10;99.90;;;;;;5035082;28;20035;-55
2022/06/10 04:03:45;;;;;;;6.88;3.25;;;9.10;99.90;;;;;;5051733;28;20217;-55
2022/06/10 04:06:12;;;;;;;6.20;3.03;;;9.20;99.90;;;;;;5052707;28;20536;-54
2022/06/10 04:08:59;;;;;;;8.10;3.95;;;9.20;99.90;;;;;;5031816;28;20068;-54
2022/06/10 04:11:31;;;;;;;7.15;3.30;;;9.20;99.90;;;;;;5018214;28;20503;-53
2022/06/10 04:13:58;;;;;;;5.47;4.25;;;9.20;99.90;;;;;;5051187;28;20036;-54
2022/06/10 04:16:27;;;;;;;4.03;2.70;;;9.30;99.90;;;;;;5049021;28;20182;-53
2022/06/10 04:18:54;;;;;;;6.30;2.58;;;9.30;99.90;;;;;;5031113;28;20093;-53
2022/06/10 04:21:22;;;;;;;6.13;3.22;;;9.30;99.90;;;;;;5031606;28;20044;-54
2022/06/10 04:23:49;;;;;;;6.85;2.88;;;9.40;99.90;;;;;;5015568;28;20205;-55
2022/06/10 04:26:16;;;;;;;6.22;3.30;;;9.40;99.90;;;;;;5031964;28;20044;-54
2022/06/10 04:28:43;;;;;;;6.45;3.10;;;9.50;99.90;;;;;;5052045;28;20379;-55
2022/06/10 04:31:10;;;;;;;4.85;3.33;;;9.50;99.90;;;;;;5050560;28;20340;-55
2022/06/10 04:33:37;;;;;;;8.35;4.30;;;9.50;99.90;;;;;;5013477;28;20051;-53
2022/06/10 04:36:05;;;;;;;5.05;3.35;;;9.60;99.90;;;;;;5008543;28;20237;-52
2022/06/10 04:38:32;;;;;;;7.45;3.20;;;9.60;99.90;;;;;;5032698;28;20332;-51
2022/06/10 04:40:59;;;;;;;8.15;3.42;;;9.70;99.90;;;;;;5011051;28;20129;-52
2022/06/10 04:43:27;;;;;;;8.43;2.95;;;9.70;99.90;;;;;;5033491;28;20185;-53
2022/06/10 04:45:57;;;;;;;8.60;3.13;;;9.80;99.90;;;;;;5032984;28;20915;-52
2022/06/10 04:48:24;;;;;;;6.80;3.88;;;9.90;99.90;;;;;;5031485;28;20196;-53
2022/06/10 04:50:51;;;;;;;9.32;3.78;;;9.90;99.90;;;;;;5033658;28;20040;-53
2022/06/10 04:53:18;;;;;;;8.57;3.35;;;10.00;99.90;;;;;;5026156;28;20552;-52
2022/06/10 04:55:45;;;;;;;7.78;3.80;;;10.10;99.90;;;;;;5027039;28;20036;-53
2022/06/10 04:58:13;;;;;;;6.68;3.08;;;10.10;99.90;;;;;;5019980;28;20028;-56
2022/06/10 05:00:43;;;;;;;6.18;3.15;;;10.20;99.90;;;;;;5030236;28;20560;-52
2022/06/10 05:03:11;;;;;;;6.00;3.25;;;10.20;99.90;;;;;;5009393;28;20036;-51
2022/06/10 05:05:38;;;;;;;5.80;2.80;;;10.30;99.90;;;;;;5020387;28;20228;-53
2022/06/10 05:08:07;;;;;;;8.10;3.33;;;10.30;99.90;;;;;;5028946;28;20142;-53
2022/06/10 05:10:35;;;;;;;8.60;2.42;;;10.40;99.90;;;;;;5029395;28;20375;-53
2022/06/10 05:13:02;;;;;;;2.85;2.10;;;10.40;99.90;;;;;;5031797;28;20579;-53
2022/06/10 05:15:29;;;;;;;8.60;3.35;;;10.50;99.90;;;;;;5028384;28;20040;-52
2022/06/10 05:17:58;;;;;;;11.85;3.67;;;10.50;99.90;;;;;;5046321;28;20039;-53
2022/06/10 05:20:38;;;;;;;5.57;3.33;;;10.60;99.90;;;;;;5049627;28;20043;-55
2022/06/10 05:23:07;;;;;;;8.10;3.63;;;10.70;99.90;;;;;;5008105;28;20093;-60
2022/06/10 05:25:35;;;;;;;7.43;3.25;;;10.80;99.90;;;;;;5033350;28;20064;-53
2022/06/10 05:28:02;;;;;;;5.32;3.22;;;10.80;99.90;;;;;;5044575;28;20220;-54
2022/06/10 05:30:31;;;;;;;5.78;4.57;;;10.90;99.90;;;;;;5032905;28;20050;-54
2022/06/10 05:33:00;;;;;;;6.05;2.85;;;10.90;99.90;;;;;;5041154;28;20114;-54
2022/06/10 05:35:28;;;;;;;5.93;3.10;;;11.00;99.90;;;;;;5038029;28;20732;-54
2022/06/10 05:37:55;;;;;;;5.95;2.90;;;11.10;99.90;;;;;;5048562;28;20054;-56
2022/06/10 05:40:25;;;;;;;3.97;2.55;;;11.20;99.90;;;;;;5031371;28;20042;-54
2022/06/10 05:42:52;;;;;;;5.55;2.90;;;11.20;99.90;;;;;;5034621;28;20099;-54
2022/06/10 05:45:21;;;;;;;2.97;2.38;;;11.30;99.90;;;;;;5015749;28;20787;-54
2022/06/10 05:47:51;;;;;;;5.70;2.60;;;11.30;99.90;;;;;;5036159;28;20040;-53
2022/06/10 05:50:27;;;;;;;5.35;3.17;;;11.40;99.90;;;;;;5035249;28;20036;-53
2022/06/10 05:52:55;;;;;;;9.38;2.88;;;11.50;99.90;;;;;;5032330;28;20048;-51
2022/06/10 05:55:22;;;;;;;5.97;2.38;;;11.60;99.90;;;;;;5034582;28;20143;-53
2022/06/10 05:57:51;;;;;;;13.88;2.65;;;11.60;99.90;;;;;;5016533;28;20044;-53
2022/06/10 06:00:24;;;;;;;5.63;3.15;;;11.70;99.90;;;;;;5032390;28;20032;-54
2022/06/10 06:02:51;;;;;;;4.85;2.50;;;11.80;99.90;;;;;;5015685;28;20190;-52
2022/06/10 06:05:20;;;;;;;10.57;2.88;;;11.80;99.90;;;;;;5034476;28;20193;-55
2022/06/10 06:07:48;;;;;;;3.60;2.30;;;12.00;99.90;;;;;;5034938;28;20040;-54
2022/06/10 06:10:19;;;;;;;6.40;2.70;;;12.00;99.90;;;;;;4994950;28;20158;-53
2022/06/10 06:12:46;;;;;;;7.93;3.72;;;12.10;99.90;;;;;;5018516;28;20301;-50
2022/06/10 06:15:13;;;;;;;6.10;2.30;;;12.20;99.90;;;;;;5014055;28;20363;-55
2022/06/10 06:17:41;;;;;;;5.45;2.30;;;12.20;99.90;;;;;;5026950;28;20382;-52
2022/06/10 06:20:12;;;;;;;6.60;2.47;;;12.30;99.90;;;;;;5051349;28;20252;-54
2022/06/10 06:22:39;;;;;;;4.25;2.20;;;12.40;99.90;;;;;;5005314;28;20055;-52
2022/06/10 06:25:06;;;;;;;4.55;2.45;;;12.50;99.90;;;;;;5017665;28;20850;-51
2022/06/10 06:27:33;;;;;;;6.35;2.42;;;12.50;99.90;;;;;;5023034;28;20047;-53
2022/06/10 06:30:01;;;;;;;;;;;12.60;99.90;;;;;;5016176;28;20036;-53
2022/06/10 06:32:28;;;;;;;;;;;12.70;99.90;;;;;;5013869;28;20187;-54
2022/06/10 06:34:55;;;;;;;10.70;2.33;;;12.80;99.90;;;;;;5002482;28;20096;-58
2022/06/10 06:37:22;;;;;;;4.07;2.33;;;12.80;99.90;;;;;;5001459;28;20872;-50
2022/06/10 06:39:49;;;;;;;9.77;2.03;;;12.90;99.90;;;;;;5029321;28;20807;-51
2022/06/10 06:42:16;;;;;;;8.73;2.25;;;13.00;99.90;;;;;;5031108;28;20300;-51
2022/06/10 06:44:56;;;;;;;7.07;2.17;;;13.10;99.90;;;;;;5011818;28;20140;-50
2022/06/10 06:47:43;;;;;;;7.85;2.25;;;13.20;99.90;;;;;;5015802;28;20771;-58
2022/06/10 06:50:14;;;;;;;5.63;1.80;;;13.30;99.90;;;;;;5012504;28;20193;-55
2022/06/10 06:52:42;;;;;;;5.43;2.22;;;13.40;99.90;;;;;;5015628;28;20094;-52
2022/06/10 06:55:09;;;;;;;9.48;3.63;;;13.50;99.90;;;;;;5015723;28;20633;-52
2022/06/10 06:57:37;;;;;;;5.65;2.00;;;13.70;99.90;;;;;;5050467;28;20121;-55
2022/06/10 07:00:06;;;;;;;5.47;2.08;;;13.80;99.90;;;;;;4997975;28;20101;-48
2022/06/10 07:02:34;;;;;;;7.45;2.42;;;13.90;99.90;;;;;;4999775;28;20196;-51
2022/06/10 07:05:06;;;;;;;16.17;2.35;;;14.00;99.90;;;;;;5029302;28;20058;-51
2022/06/10 07:07:33;;;;;;;8.05;2.28;;;14.10;99.90;;;;;;5011062;28;20913;-52
2022/06/10 07:10:00;;;;;;;13.18;2.90;;;14.20;99.90;;;;;;5057373;28;20437;-56
2022/06/10 07:12:27;;;;;;;5.82;2.38;;;14.40;99.90;;;;;;5034421;28;20040;-52
2022/06/10 07:14:55;;;;;;;8.27;2.20;;;14.50;99.90;;;;;;5016331;28;20044;-49
2022/06/10 07:17:21;;;;;;;7.97;2.60;;;14.60;99.90;;;;;;5035331;28;20813;-52
2022/06/10 07:19:51;;;;;;;8.07;2.38;;;14.80;99.90;;;;;;5019192;28;20340;-52
2022/06/10 07:22:18;;;;;;;5.55;2.08;;;14.90;99.90;;;;;;5049525;28;20048;-52
2022/06/10 07:24:46;;;;;;;5.82;2.42;;;15.10;99.90;;;;;;5031706;28;20050;-51
2022/06/10 07:27:13;;;;;;;9.82;2.65;;;15.20;99.90;;;;;;5026165;28;20055;-49
2022/06/10 07:29:40;;;;;;;5.57;2.22;;;15.30;99.90;;;;;;5032730;28;20078;-53
2022/06/10 07:32:07;;;;;;;;;;;15.40;99.90;;;;;;5040146;28;20460;-52
2022/06/10 07:34:34;;;;;;;6.87;2.77;;;15.50;99.90;;;;;;5005483;28;20433;-51
2022/06/10 07:37:02;;;;;;;7.65;3.08;;;15.60;99.90;;;;;;5014220;28;20032;-51
2022/06/10 07:39:29;;;;;;;6.32;3.28;;;15.70;99.90;;;;;;5045420;28;20040;-54
2022/06/10 07:42:02;;;;;;;9.13;3.72;;;15.80;99.90;;;;;;5034678;28;20043;-53
2022/06/10 07:44:36;;;;;;;7.63;2.55;;;15.90;99.90;;;;;;5037273;28;20189;-51
2022/06/10 07:47:08;;;;;;;10.50;3.50;;;16.00;99.90;;;;;;5034549;28;20841;-52
2022/06/10 07:49:37;;;;;;;12.38;3.50;;;16.10;99.90;;;;;;4988365;28;20044;-51
2022/06/10 07:52:05;;;;;;;10.55;2.60;;;16.20;99.90;;;;;;5035686;28;20055;-53
2022/06/10 07:54:36;;;;;;;6.43;2.50;;;16.30;99.90;;;;;;5026606;28;20060;-48
2022/06/10 07:57:05;;;;;;;9.75;2.78;;;16.40;99.90;;;;;;5036869;28;20219;-58
2022/06/10 07:59:33;;;;;;;10.85;3.30;;;16.50;99.90;;;;;;5015041;28;20040;-53
2022/06/10 08:02:00;;;;;;;3.80;1.75;;;16.60;99.90;;;;;;5049601;28;20143;-51
2022/06/10 08:04:27;;;;;;;4.13;1.98;;;16.70;99.90;;;;;;5011411;28;20092;-49
2022/06/10 08:06:55;;;;;;;4.93;1.65;;;16.80;99.90;;;;;;5032627;28;20071;-51
2022/06/10 08:09:23;;;;;;;8.00;2.03;;;17.00;99.90;;;;;;5046884;28;20104;-51
2022/06/10 08:11:52;;;;;;;8.68;2.20;;;17.10;99.90;;;;;;5012925;28;20051;-51
2022/06/10 08:14:20;;;;;;;7.20;2.35;;;17.20;99.90;;;;;;5005709;28;20040;-48
2022/06/10 08:16:47;;;;;;;11.00;3.45;;;17.30;99.90;;;;;;5036308;28;20187;-49
2022/06/10 08:19:14;;;;;;;11.23;3.78;;;17.40;99.90;;;;;;5069910;28;20128;-50
2022/06/10 08:24:27;;;;;;;8.95;2.35;;;17.50;99.90;;;;;;5076489;28;20091;-50
2022/06/10 08:26:54;;;;;;;12.70;1.92;;;17.70;99.90;;;;;;5084383;28;20039;-50
2022/06/10 08:29:21;;;;;;;19.35;3.38;;;17.90;99.90;;;;;;5075624;28;20753;-47
2022/06/10 08:31:47;;;;;;;10.90;2.50;;;18.10;99.90;;;;;;5047010;28;20067;-48
2022/06/10 08:34:15;;;;;;;6.35;2.45;;;18.30;99.90;;;;;;5023322;28;20300;-49
2022/06/10 08:36:42;;;;;;;5.47;2.55;;;18.50;99.90;;;;;;5005784;28;20209;-52
2022/06/10 08:39:10;;;;;;;7.20;2.53;;;18.70;99.90;;;;;;5018370;28;20040;-49
2022/06/10 08:41:56;;;;;;;10.10;3.33;;;18.80;99.90;;;;;;5022867;28;20071;-53
2022/06/10 08:44:36;;;;;;;12.32;2.97;;;18.90;99.90;;;;;;5066911;28;20308;-56
2022/06/10 08:47:57;;;;;;;6.13;2.35;;;19.20;99.90;;;;;;5036090;28;20044;-54
2022/06/10 08:51:05;;;;;;;6.43;2.72;;;19.40;99.90;;;;;;5005272;28;20119;-53
2022/06/10 08:54:12;;;;;;;6.20;2.28;;;19.70;99.90;;;;;;5048640;28;20655;-52
2022/06/10 08:56:43;;;;;;;7.93;2.53;;;19.80;99.90;;;;;;5038941;28;20810;-53
2022/06/10 08:59:28;;;;;;;7.03;2.13;;;19.90;99.90;;;;;;5034512;28;20219;-52
2022/06/10 09:02:11;;;;;;;7.75;2.10;;;20.30;99.90;;;;;;5052619;28;20039;-49
2022/06/10 09:04:56;;;;;;;9.82;2.80;;;20.60;99.90;;;;;;5059022;28;20066;-49
2022/06/10 09:07:32;;;;;;;9.18;2.10;;;20.70;99.90;;;;;;5095265;28;20420;-50
2022/06/10 09:10:01;;;;;;;7.93;2.90;;;20.80;99.90;;;;;;5025177;28;20578;-49
2022/06/10 09:12:51;;;;;;;5.53;1.85;;;20.90;99.90;;;;;;5052794;28;20147;-50
2022/06/10 09:15:19;;;;;;;6.80;1.65;;;20.90;99.90;;;;;;5028438;28;20109;-50
2022/06/10 09:17:55;;;;;;;8.65;2.25;;;21.00;99.90;;;;;;5060221;28;20409;-51
2022/06/10 09:20:35;;;;;;;7.10;1.92;;;20.90;99.90;;;;;;5079828;28;20050;-50
2022/06/10 09:23:10;;;;;;;9.13;1.67;;;20.80;99.90;;;;;;5060476;28;20048;-47
2022/06/10 09:25:43;;;;;;;7.38;2.28;;;20.70;99.90;;;;;;5026255;28;20055;-51
2022/06/10 09:28:10;;;;;;;8.88;2.13;;;20.70;99.90;;;;;;5026708;28;20139;-49
2022/06/10 09:30:40;;;;;;;7.40;1.85;;;20.80;99.90;;;;;;5037097;28;20124;-51
2022/06/10 09:33:22;;;;;;;6.68;1.75;;;20.90;99.90;;;;;;5039318;28;20193;-49
2022/06/10 09:35:53;;;;;;;8.68;1.95;;;21.00;99.90;;;;;;5013436;28;20044;-51
2022/06/10 09:38:27;;;;;;;7.70;2.22;;;21.00;99.90;;;;;;5025472;28;20032;-52
2022/06/10 09:41:19;;;;;;;7.47;1.58;;;21.10;99.90;;;;;;5015788;28;20040;-52
2022/06/10 09:44:05;;;;;;;7.53;1.90;;;21.20;99.90;;;;;;5017583;28;20045;-52
2022/06/10 09:46:49;;;;;;;5.90;1.90;;;21.20;99.90;;;;;;5016914;28;20048;-53
2022/06/10 09:49:57;;;;;;;4.75;2.20;;;21.20;99.90;;;;;;5016600;28;20045;-55
2022/06/10 09:52:36;;;;;;;6.68;1.98;;;21.30;99.90;;;;;;5025094;28;20044;-53
2022/06/10 09:55:33;;;;;;;6.90;2.22;;;21.40;99.90;;;;;;4997967;28;20072;-52
2022/06/10 09:58:00;;;;;;;7.57;1.58;;;21.30;99.90;;;;;;4998536;28;20439;-52
2022/06/10 10:00:40;;;;;;;5.68;1.30;;;21.30;99.90;;;;;;5014916;28;20458;-53
2022/06/10 10:03:29;;;;;;;10.65;1.40;;;21.20;99.90;;;;;;5013601;28;20041;-53
2022/06/10 10:06:07;;;;;;;3.97;1.50;;;21.30;99.90;;;;;;5024658;28;20044;-53
2022/06/10 10:09:03;;;;;;;10.18;1.40;;;21.30;99.90;;;;;;5007579;28;20448;-53
2022/06/10 10:11:44;;;;;;;4.05;1.35;;;21.30;99.90;;;;;;5032791;28;20051;-54
2022/06/10 10:14:21;;;;;;;4.03;1.40;;;21.30;96.80;;;;;;5013665;28;20052;-53
2022/06/10 10:17:25;;;;;;;8.93;1.85;;;21.30;96.40;;;;;;5042835;28;20047;-54
2022/06/10 10:20:19;;;;;;;5.50;1.38;;;21.40;86.80;;;;;;5035491;28;20048;-54
2022/06/10 10:23:15;;;;;;;4.80;1.05;;;21.50;94.30;;;;;;5036201;28;20035;-54
2022/06/10 10:25:47;;;;;;;4.18;1.40;;;21.60;93.40;;;;;;5057354;28;20046;-54
2022/06/10 10:28:19;;;;;;;8.82;1.45;;;21.70;93.70;;;;;;5015998;28;20045;-54
2022/06/10 10:31:08;;;;;;;2.55;1.35;;;21.70;90.00;;;;;;5018876;28;20044;-54
2022/06/10 10:33:35;;;;;;;2.60;0.90;;;21.80;93.60;;;;;;5000611;28;20047;-53
2022/06/10 10:36:20;;;;;;;2.40;0.70;;;21.80;85.80;;;;;;5037763;28;20076;-54
2022/06/10 10:38:49;;;;;;;4.82;1.52;;;21.70;78.80;;;;;;5014869;28;20048;-52
2022/06/10 10:41:26;;;;;;;3.30;0.95;;;21.70;94.40;;;;;;5029914;28;20339;-53
2022/06/10 10:43:54;;;;;;;;;;;21.80;93.30;;;;;;5016664;28;20255;-52
2022/06/10 10:46:32;;;;;;;5.32;1.20;;;21.70;93.10;;;;;;5023477;28;19956;-57
2022/06/10 10:49:04;;;;;;;2.78;1.13;;;21.80;92.40;;;;;;5006618;28;20345;-52
2022/06/10 10:51:39;;;;;;;6.88;1.10;;;21.90;95.90;;;;;;5010531;28;20052;-53
2022/06/10 10:54:27;;;;;;;6.15;1.67;;;22.00;93.30;;;;;;5032856;28;20922;-54
2022/06/10 10:56:55;;;;;;;1.80;0.80;;;22.00;79.80;;;;;;4997429;28;20048;-54
2022/06/10 10:59:26;;;;;;;4.32;1.33;;;22.10;87.40;;;;;;5037702;28;20159;-54
2022/06/10 11:01:54;;;;;;;5.32;1.15;;;22.10;79.70;;;;;;5015869;28;20040;-54
2022/06/10 11:04:31;;;;;;;2.72;1.33;;;22.10;76.40;;;;;;5035946;28;20051;-53
2022/06/10 11:07:18;;;;;;;4.78;1.27;;;22.00;75.70;;;;;;5053074;28;20201;-54
2022/06/10 11:10:08;;;;;;;1.95;0.70;;;22.00;93.60;;;;;;5035223;28;20048;-54
2022/06/10 11:12:35;;;;;;;5.47;1.70;;;22.00;73.60;;;;;;4998352;28;20836;-54
2022/06/10 11:15:31;;;;;;;5.32;1.20;;;21.90;71.20;;;;;;5029713;28;20353;-55
2022/06/10 11:17:59;;;;;;;3.88;1.20;;;22.00;86.30;;;;;;5049298;28;20836;-54
2022/06/10 11:20:29;;;;;;;2.80;0.82;;;22.10;74.90;;;;;;5049559;28;20101;-54
2022/06/10 11:23:11;;;;;;;3.22;1.05;;;22.10;74.20;;;;;;5056029;28;20651;-54
2022/06/10 11:25:46;;;;;;;2.50;1.02;;;22.20;71.50;;;;;;5017261;28;20052;-54
2022/06/10 11:28:22;;;;;;;4.43;1.17;;;22.30;85.80;;;;;;5039385;28;20044;-55
2022/06/10 11:30:55;;;;;;;2.70;1.02;;;22.20;79.10;;;;;;5030787;28;20051;-54
2022/06/10 11:33:41;;;;;;;3.60;0.80;;;22.30;91.90;;;;;;5028542;28;20898;-54
2022/06/10 11:36:20;;;;;;;4.05;1.40;;;22.40;77.80;;;;;;5021465;28;20611;-54
2022/06/10 11:39:40;;;;;;;3.33;1.08;;;22.50;78.40;;;;;;5039362;28;20434;-56
2022/06/10 11:42:25;;;;;;;2.63;1.10;;;22.50;72.50;;;;;;4984928;28;20331;-56
2022/06/10 11:45:17;;;;;;;3.38;0.90;;;22.50;85.70;;;;;;5049441;28;20196;-54
2022/06/10 11:48:00;;;;;;;1.65;0.80;;;22.60;83.30;;;;;;5015049;28;20200;-55
2022/06/10 11:50:38;;;;;;;2.33;0.88;;;22.70;78.80;;;;;;5032232;28;20802;-55
2022/06/10 11:53:15;;;;;;;3.47;1.20;;;22.80;79.00;;;;;;5034181;28;20343;-55
2022/06/10 11:55:46;;;;;;;3.15;1.10;;;22.90;70.40;;;;;;5034807;28;20063;-59
2022/06/10 12:01:29;;;;;;;4.45;1.30;;;22.80;73.90;;;;;;5019825;28;20564;-55
2022/06/10 12:04:15;;;;;;;3.30;1.00;;;22.80;82.40;;;;;;5029685;28;20100;-53
2022/06/10 12:06:53;;;;;;;3.45;1.02;;;22.90;78.40;;;;;;5014521;28;20135;-54
2022/06/10 12:09:47;;;;;;;4.00;1.00;;;23.10;83.50;;;;;;5017390;28;20052;-59
2022/06/10 12:12:20;;;;;;;2.03;0.80;;;23.20;82.80;;;;;;5013396;28;20852;-54
2022/06/10 12:14:55;;;;;;;2.03;1.05;;;23.30;80.50;;;;;;4997025;28;20064;-55
2022/06/10 12:17:35;;;;;;;4.15;1.00;;;23.40;75.70;;;;;;5027383;28;20035;-55
2022/06/10 12:20:12;;;;;;;4.45;0.80;;;23.50;78.30;;;;;;5035063;28;20709;-55
2022/06/10 12:22:39;;;;;;;5.70;1.25;;;23.60;70.30;;;;;;5054574;28;20039;-55
2022/06/10 12:25:21;;;;;;;2.70;1.30;;;23.70;69.80;;;;;;5051032;28;20357;-55
2022/06/10 12:27:55;;;;;;;3.85;1.00;;;23.80;64.90;;;;;;5032945;28;20778;-55
2022/06/10 12:30:44;;;;;;;2.67;0.90;;;23.80;67.20;;;;;;5012284;28;20033;-55
2022/06/10 12:33:38;;;;;;;4.45;1.20;;;23.80;69.70;;;;;;5009882;28;20957;-55
2022/06/10 12:36:14;;;;;;;4.22;1.45;;;24.00;70.00;;;;;;5021726;28;20915;-55
2022/06/10 12:38:43;;;;;;;3.35;1.30;;;24.00;70.80;;;;;;5011857;28;20050;-55
2022/06/10 12:41:42;;;;;;;4.47;1.08;;;24.10;65.00;;;;;;5012682;28;20567;-55
2022/06/10 12:44:19;;;;;;;5.60;1.63;;;24.30;66.40;;;;;;5030510;28;20193;-55
2022/06/10 12:46:56;;;;;;;3.17;1.52;;;24.50;67.40;;;;;;5034192;28;20051;-55
2022/06/10 12:49:29;;;;;;;3.53;1.77;;;24.60;62.40;;;;;;5026584;28;20051;-55
2022/06/10 12:52:30;;;;;;;8.23;1.85;;;24.50;60.90;;;;;;5029724;28;20583;-55
2022/06/10 12:55:19;;;;;;;2.47;1.02;;;24.40;57.90;;;;;;5016416;28;20565;-54
2022/06/10 12:57:47;;;;;;;3.45;1.20;;;24.40;65.30;;;;;;5032682;28;20744;-54
2022/06/10 13:00:32;;;;;;;2.25;0.65;;;24.40;61.10;;;;;;5030836;28;20040;-55
2022/06/10 13:03:14;;;;;;;4.55;1.45;;;24.60;63.20;;;;;;5031924;28;20186;-55
2022/06/10 13:05:46;;;;;;;4.15;1.13;;;24.70;58.90;;;;;;5033521;28;20296;-55
2022/06/10 13:08:34;;;;;;;3.72;1.50;;;24.90;58.40;;;;;;5030766;28;20044;-54
2022/06/10 13:11:04;;;;;;;6.20;1.50;;;25.10;57.00;;;;;;5034134;28;20044;-55
2022/06/10 13:13:32;;;;;;;2.55;1.00;;;25.20;57.90;;;;;;5009252;28;20062;-56
2022/06/10 13:16:21;;;;;;;2.85;0.80;;;25.10;60.40;;;;;;5032375;28;20048;-54
2022/06/10 13:18:56;;;;;;;3.72;1.20;;;25.20;58.60;;;;;;5008154;28;20042;-56
2022/06/10 13:21:30;;;;;;;2.45;0.93;;;25.30;60.20;;;;;;4994775;28;20041;-55
2022/06/10 13:24:00;;;;;;;3.45;0.98;;;25.20;59.10;;;;;;5007407;28;20506;-55
2022/06/10 13:26:32;;;;;;;8.05;0.77;;;25.00;57.90;;;;;;5014960;28;20192;-56
2022/06/10 13:29:17;;;;;;;3.78;0.90;;;25.00;56.90;;;;;;5030054;28;20230;-56
2022/06/10 13:31:56;;;;;;;2.67;1.13;;;24.80;55.90;;;;;;5030530;28;20063;-55
2022/06/10 13:34:23;;;;;;;2.50;1.00;;;24.80;57.00;;;;;;5028532;28;20254;-54
2022/06/10 13:36:55;;;;;;;4.88;1.20;;;24.90;51.70;;;;;;5028554;28;20336;-56
2022/06/10 13:39:25;;;;;;;2.28;1.08;;;24.90;55.90;;;;;;5009022;28;20206;-56
2022/06/10 13:41:54;;;;;;;3.30;1.27;;;24.80;56.10;;;;;;5011412;28;20063;-55
2022/06/10 13:44:41;;;;;;;2.65;1.17;;;24.70;56.40;;;;;;5011811;28;20037;-55